createdAt,value
2022-10-11T00:01:54.409Z,55.20
2022-10-11T00:04:22.264Z,55.20
2022-10-11T00:06:50.135Z,55.00
2022-10-11T00:09:18.079Z,54.80
2022-10-11T00:11:45.892Z,54.80
2022-10-11T00:14:15.098Z,54.90
2022-10-11T00:16:44.510Z,55.10
2022-10-11T00:19:12.326Z,55.10
2022-10-11T00:21:40.311Z,55.20
2022-10-11T00:24:08.309Z,55.20
2022-10-11T00:26:36.098Z,55.40
2022-10-11T00:29:03.967Z,55.30
2022-10-11T00:31:35.637Z,55.30
2022-10-11T00:34:03.771Z,55.70
2022-10-11T00:36:31.958Z,55.80
2022-10-11T00:39:02.877Z,55.90
2022-10-11T00:41:30.787Z,56.10
2022-10-11T00:44:15.370Z,56.40
2022-10-11T00:46:45.731Z,56.60
2022-10-11T00:49:16.661Z,56.70
2022-10-11T00:51:46.422Z,56.60
2022-10-11T00:54:16.531Z,56.40
2022-10-11T00:56:45.339Z,56.30
2022-10-11T00:59:17.809Z,56.20
2022-10-11T01:01:47.140Z,56.30
2022-10-11T01:04:14.972Z,56.30
2022-10-11T01:06:43.015Z,56.20
2022-10-11T01:09:11.224Z,56.10
2022-10-11T01:11:40.283Z,56.00
2022-10-11T01:14:16.260Z,56.30
2022-10-11T01:16:48.484Z,56.70
2022-10-11T01:19:24.210Z,56.80
2022-10-11T01:21:54.175Z,56.80
2022-10-11T01:24:44.822Z,56.60
2022-10-11T01:27:30.282Z,56.40
2022-10-11T01:30:03.766Z,56.40
2022-10-11T01:32:35.721Z,56.40
2022-10-11T01:35:07.459Z,56.10
2022-10-11T01:37:36.361Z,56.10
2022-10-11T01:40:07.029Z,56.10
2022-10-11T01:42:35.628Z,56.10
2022-10-11T01:45:03.729Z,56.10
2022-10-11T01:47:32.904Z,56.30
2022-10-11T01:50:01.424Z,56.30
2022-10-11T01:52:31.288Z,56.70
2022-10-11T01:55:17.800Z,56.70
2022-10-11T01:57:48.768Z,56.70
2022-10-11T02:00:19.270Z,56.70
2022-10-11T02:03:06.096Z,56.70
2022-10-11T02:05:38.511Z,57.10
2022-10-11T02:08:08.920Z,57.30
2022-10-11T02:10:39.301Z,57.30
2022-10-11T02:13:09.965Z,57.20
2022-10-11T02:15:39.400Z,57.00
2022-10-11T02:18:12.759Z,56.90
2022-10-11T02:20:42.282Z,56.90
2022-10-11T02:23:11.730Z,57.00
2022-10-11T02:25:40.792Z,57.30
2022-10-11T02:28:12.612Z,57.80
2022-10-11T02:30:42.525Z,57.90
2022-10-11T02:33:18.274Z,57.80
2022-10-11T02:35:48.246Z,57.70
2022-10-11T02:38:19.201Z,57.90
2022-10-11T02:40:48.524Z,57.80
2022-10-11T02:43:19.391Z,57.80
2022-10-11T02:45:49.422Z,57.70
2022-10-11T02:48:19.232Z,57.70
2022-10-11T02:50:47.273Z,57.60
2022-10-11T02:53:15.290Z,58.00
2022-10-11T02:55:43.298Z,58.10
2022-10-11T02:58:11.256Z,58.00
2022-10-11T03:00:43.970Z,57.80
2022-10-11T03:03:11.898Z,57.90
2022-10-11T03:05:41.618Z,57.70
2022-10-11T03:08:10.008Z,57.80
2022-10-11T03:10:38.045Z,57.70
2022-10-11T03:13:05.942Z,57.60
2022-10-11T03:15:36.150Z,57.60
2022-10-11T03:18:04.242Z,58.00
2022-10-11T03:20:31.985Z,58.10
2022-10-11T03:23:01.335Z,57.90
2022-10-11T03:25:29.520Z,58.00
2022-10-11T03:27:58.608Z,58.20
2022-10-11T03:30:26.559Z,58.40
2022-10-11T03:32:54.463Z,58.70
2022-10-11T03:35:25.311Z,58.40
2022-10-11T03:37:55.816Z,58.20
2022-10-11T03:40:25.107Z,58.20
2022-10-11T03:42:59.053Z,58.20
2022-10-11T03:45:29.766Z,58.00
2022-10-11T03:47:57.743Z,58.20
2022-10-11T03:50:25.876Z,58.10
2022-10-11T03:52:53.706Z,58.20
2022-10-11T03:55:21.627Z,58.20
2022-10-11T03:57:50.902Z,58.30
2022-10-11T04:00:20.856Z,58.30
2022-10-11T04:02:48.892Z,58.40
2022-10-11T04:05:19.775Z,58.50
2022-10-11T04:07:47.781Z,58.40
2022-10-11T04:10:15.732Z,58.40
2022-10-11T04:12:43.943Z,58.30
2022-10-11T04:15:13.690Z,58.40
2022-10-11T04:17:41.659Z,58.50
2022-10-11T04:20:10.319Z,58.60
2022-10-11T04:22:38.500Z,58.50
2022-10-11T04:25:09.973Z,58.70
2022-10-11T04:27:37.872Z,58.80
2022-10-11T04:30:07.450Z,58.90
2022-10-11T04:32:36.803Z,58.90
2022-10-11T04:35:05.009Z,59.00
2022-10-11T04:37:33.298Z,59.00
2022-10-11T04:40:01.195Z,58.90
2022-10-11T04:42:29.056Z,58.80
2022-10-11T04:45:03.055Z,58.70
2022-10-11T04:47:33.581Z,58.70
2022-10-11T04:50:02.928Z,58.80
2022-10-11T04:52:33.963Z,58.90
2022-10-11T04:55:01.944Z,59.00
2022-10-11T04:57:29.862Z,59.00
2022-10-11T04:59:57.861Z,59.00
2022-10-11T05:02:25.700Z,59.20
2022-10-11T05:04:53.676Z,59.30
2022-10-11T05:07:26.050Z,60.00
2022-10-11T05:09:56.396Z,59.60
2022-10-11T05:12:24.293Z,59.70
2022-10-11T05:14:51.996Z,59.60
2022-10-11T05:17:19.798Z,59.70
2022-10-11T05:19:49.579Z,60.30
2022-10-11T05:22:17.317Z,59.90
2022-10-11T05:24:49.571Z,59.90
2022-10-11T05:27:17.428Z,59.90
2022-10-11T05:29:45.756Z,60.00
2022-10-11T05:32:13.558Z,59.80
2022-10-11T05:34:41.328Z,59.80
2022-10-11T05:37:09.153Z,59.80
2022-10-11T05:39:37.143Z,59.70
2022-10-11T05:42:09.739Z,59.70
2022-10-11T05:44:39.577Z,59.60
2022-10-11T05:47:07.482Z,59.70
2022-10-11T05:49:35.212Z,59.90
2022-10-11T05:52:06.663Z,60.00
2022-10-11T05:54:36.085Z,60.10
2022-10-11T05:57:04.015Z,60.10
2022-10-11T05:59:33.319Z,60.20
2022-10-11T06:02:01.212Z,60.20
2022-10-11T06:04:29.054Z,60.30
2022-10-11T06:06:56.847Z,60.30
2022-10-11T06:09:27.270Z,60.30
2022-10-11T06:11:55.087Z,60.30
2022-10-11T06:14:22.847Z,60.40
2022-10-11T06:16:51.983Z,60.50
2022-10-11T06:19:19.805Z,60.70
2022-10-11T06:21:50.576Z,60.90
2022-10-11T06:24:18.574Z,60.90
2022-10-11T06:26:46.467Z,60.80
2022-10-11T06:29:14.295Z,60.80
2022-10-11T06:31:42.376Z,60.70
2022-10-11T06:34:12.905Z,60.60
2022-10-11T06:36:42.681Z,60.40
2022-10-11T06:39:11.664Z,60.40
2022-10-11T06:41:39.586Z,60.40
2022-10-11T06:44:11.928Z,60.40
2022-10-11T06:46:41.861Z,60.40
2022-10-11T06:49:11.283Z,60.40
2022-10-11T06:51:39.108Z,60.40
2022-10-11T06:54:06.973Z,60.80
2022-10-11T06:56:34.804Z,60.10
2022-10-11T06:59:03.577Z,60.00
2022-10-11T07:01:34.159Z,59.80
2022-10-11T07:04:03.136Z,59.70
2022-10-11T07:06:32.777Z,59.70
2022-10-11T07:09:03.075Z,59.60
2022-10-11T07:11:30.984Z,59.80
2022-10-11T07:13:59.728Z,59.70
2022-10-11T07:16:28.178Z,59.60
2022-10-11T07:19:00.404Z,59.60
2022-10-11T07:21:28.796Z,59.50
2022-10-11T07:23:58.001Z,59.40
2022-10-11T07:26:25.915Z,59.80
2022-10-11T07:28:53.767Z,59.80
2022-10-11T07:31:22.622Z,59.60
2022-10-11T07:33:50.815Z,59.70
2022-10-11T07:36:18.651Z,59.90
2022-10-11T07:38:47.367Z,59.90
2022-10-11T07:41:16.858Z,60.00
2022-10-11T07:43:46.987Z,59.70
2022-10-11T07:46:15.111Z,59.60
2022-10-11T07:48:43.004Z,59.50
2022-10-11T07:51:12.735Z,59.50
2022-10-11T07:53:41.491Z,59.50
2022-10-11T07:56:10.042Z,59.40
2022-10-11T07:58:39.359Z,59.50
2022-10-11T08:01:07.401Z,59.50
2022-10-11T08:03:35.613Z,59.90
2022-10-11T08:06:04.699Z,59.90
2022-10-11T08:08:32.865Z,59.90
2022-10-11T08:11:00.836Z,59.70
2022-10-11T08:13:28.845Z,59.80
2022-10-11T08:15:58.199Z,59.60
2022-10-11T08:18:26.352Z,59.70
2022-10-11T08:20:54.255Z,59.70
2022-10-11T08:23:22.022Z,59.80
2022-10-11T08:25:49.834Z,59.60
2022-10-11T08:28:18.092Z,59.50
2022-10-11T08:30:50.837Z,59.50
2022-10-11T08:33:21.005Z,59.20
2022-10-11T08:35:49.192Z,58.90
2022-10-11T08:38:19.108Z,58.70
2022-10-11T08:40:47.704Z,58.50
2022-10-11T08:43:19.553Z,58.40
2022-10-11T08:45:50.245Z,57.90
2022-10-11T08:48:19.118Z,57.50
2022-10-11T08:50:50.648Z,57.60
2022-10-11T08:53:23.444Z,57.40
2022-10-11T08:55:52.182Z,57.40
2022-10-11T08:58:21.641Z,57.60
2022-10-11T09:00:51.321Z,57.60
2022-10-11T09:03:29.423Z,57.40
2022-10-11T09:06:07.874Z,56.90
2022-10-11T09:08:42.269Z,56.90
2022-10-11T09:11:15.264Z,57.00
2022-10-11T09:13:54.420Z,56.90
2022-10-11T09:16:26.639Z,56.60
2022-10-11T09:19:01.311Z,56.70
2022-10-11T09:21:35.937Z,56.80
2022-10-11T09:24:19.766Z,56.70
2022-10-11T09:26:51.099Z,56.70
2022-10-11T09:29:22.707Z,56.50
2022-10-11T09:31:53.183Z,56.80
2022-10-11T09:34:23.107Z,56.40
2022-10-11T09:36:55.281Z,56.40
2022-10-11T09:39:28.403Z,56.20
2022-10-11T09:41:58.343Z,56.10
2022-10-11T09:44:27.949Z,55.80
2022-10-11T09:46:56.915Z,55.30
2022-10-11T09:49:30.335Z,54.70
2022-10-11T09:52:02.033Z,54.80
2022-10-11T09:54:38.628Z,55.20
2022-10-11T09:57:06.983Z,55.60
2022-10-11T09:59:35.376Z,55.80
2022-10-11T10:02:40.936Z,55.30
2022-10-11T10:05:19.474Z,55.00
2022-10-11T10:08:04.779Z,54.50
2022-10-11T10:10:38.577Z,54.80
2022-10-11T10:13:07.334Z,53.30
2022-10-11T10:15:36.133Z,53.00
2022-10-11T10:18:05.995Z,52.80
2022-10-11T10:20:35.101Z,52.60
2022-10-11T10:23:09.460Z,52.20
2022-10-11T10:25:43.336Z,51.90
2022-10-11T10:28:18.947Z,51.20
2022-10-11T10:30:54.445Z,51.30
2022-10-11T10:33:23.231Z,51.40
2022-10-11T10:35:53.671Z,50.70
2022-10-11T10:38:30.169Z,50.90
2022-10-11T10:41:03.705Z,51.00
2022-10-11T10:43:40.967Z,51.10
2022-10-11T10:46:21.030Z,51.00
2022-10-11T10:51:44.082Z,51.30
2022-10-11T10:54:26.220Z,50.30
2022-10-11T10:56:56.875Z,50.10
2022-10-11T10:59:40.224Z,49.90
2022-10-11T11:02:35.354Z,49.90
2022-10-11T11:05:02.998Z,49.80
2022-10-11T11:07:33.672Z,50.10
2022-10-11T11:10:04.574Z,49.50
2022-10-11T11:12:40.518Z,49.50
2022-10-11T11:15:12.359Z,49.60
2022-10-11T11:17:48.250Z,49.50
2022-10-11T11:20:37.185Z,49.80
2022-10-11T11:23:10.177Z,49.50
2022-10-11T11:25:45.034Z,49.40
2022-10-11T11:28:19.906Z,48.70
2022-10-11T11:30:53.396Z,48.60
2022-10-11T11:33:26.781Z,48.40
2022-10-11T11:35:55.438Z,47.90
2022-10-11T11:38:29.438Z,48.00
2022-10-11T11:41:02.183Z,47.70
2022-10-11T11:43:34.000Z,48.10
2022-10-11T11:46:04.654Z,48.00
2022-10-11T11:48:32.438Z,48.10
2022-10-11T11:51:05.648Z,47.80
2022-10-11T11:53:44.288Z,47.30
2022-10-11T11:56:18.303Z,47.30
2022-10-11T11:58:50.989Z,47.40
2022-10-11T12:01:26.509Z,47.40
2022-10-11T12:03:58.728Z,47.30
2022-10-11T12:06:29.096Z,46.60
2022-10-11T12:09:01.895Z,46.20
2022-10-11T12:11:39.560Z,46.40
2022-10-11T12:14:18.921Z,46.70
2022-10-11T12:17:01.594Z,46.60
2022-10-11T12:19:29.449Z,46.00
2022-10-11T12:22:12.170Z,45.50
2022-10-11T12:24:53.414Z,45.50
2022-10-11T12:27:38.140Z,45.30
2022-10-11T12:30:06.646Z,45.30
2022-10-11T12:32:55.100Z,44.90
2022-10-11T12:35:42.452Z,44.90
2022-10-11T12:38:18.631Z,44.70
2022-10-11T12:40:47.206Z,44.60
2022-10-11T12:43:27.485Z,44.20
2022-10-11T12:45:55.264Z,43.50
2022-10-11T12:48:45.337Z,43.10
2022-10-11T12:51:36.518Z,42.20
2022-10-11T12:54:28.280Z,42.80
2022-10-11T12:57:11.034Z,42.30
2022-10-11T12:59:44.201Z,41.50
2022-10-11T13:02:21.765Z,41.30
2022-10-11T13:04:49.916Z,41.60
2022-10-11T13:07:23.462Z,41.30
2022-10-11T13:09:53.763Z,40.40
2022-10-11T13:12:23.228Z,40.10
2022-10-11T13:14:59.343Z,40.20
2022-10-11T13:17:37.406Z,40.40
2022-10-11T13:20:08.335Z,40.50
2022-10-11T13:22:36.693Z,40.50
2022-10-11T13:25:05.253Z,40.70
2022-10-11T13:27:33.453Z,40.60
2022-10-11T13:30:09.124Z,40.00
2022-10-11T13:32:37.480Z,39.60
2022-10-11T13:35:07.011Z,39.20
2022-10-11T13:37:41.536Z,38.80
2022-10-11T13:40:16.971Z,37.90
2022-10-11T13:42:45.334Z,38.50
2022-10-11T13:45:16.321Z,38.60
2022-10-11T13:47:44.497Z,38.50
2022-10-11T13:50:23.534Z,38.30
2022-10-11T13:52:54.111Z,38.20
2022-10-11T13:55:26.303Z,38.20
2022-10-11T13:57:54.324Z,38.00
2022-10-11T14:00:25.375Z,38.30
2022-10-11T14:02:55.996Z,38.40
2022-10-11T14:05:28.610Z,37.20
2022-10-11T14:07:56.930Z,37.40
2022-10-11T14:10:25.886Z,37.70
2022-10-11T14:13:22.372Z,37.10
2022-10-11T14:16:00.910Z,37.00
2022-10-11T14:18:34.614Z,37.10
2022-10-11T14:21:17.562Z,37.30
2022-10-11T14:23:45.687Z,37.50
2022-10-11T14:26:18.377Z,37.70
2022-10-11T14:28:51.783Z,37.30
2022-10-11T14:31:20.989Z,37.50
2022-10-11T14:33:48.981Z,36.90
2022-10-11T14:36:16.853Z,37.40
2022-10-11T14:38:44.788Z,37.20
2022-10-11T14:41:14.219Z,37.20
2022-10-11T14:43:42.104Z,37.10
2022-10-11T14:46:11.262Z,37.10
2022-10-11T14:48:55.110Z,37.30
2022-10-11T14:51:25.619Z,37.20
2022-10-11T14:53:53.462Z,37.40
2022-10-11T14:56:23.565Z,36.90
2022-10-11T14:58:52.355Z,36.90
2022-10-11T15:01:21.441Z,37.30
2022-10-11T15:03:50.627Z,37.70
2022-10-11T15:06:19.648Z,38.50
2022-10-11T15:08:47.700Z,37.80
2022-10-11T15:11:16.780Z,37.90
2022-10-11T15:13:44.700Z,37.90
2022-10-11T15:16:13.043Z,38.60
2022-10-11T15:18:40.897Z,38.30
2022-10-11T15:21:14.184Z,38.30
2022-10-11T15:23:41.985Z,38.50
2022-10-11T15:26:11.522Z,38.50
2022-10-11T15:28:39.446Z,38.70
2022-10-11T15:31:08.866Z,38.90
2022-10-11T15:33:37.150Z,39.10
2022-10-11T15:36:05.639Z,39.10
2022-10-11T15:38:35.070Z,39.30
2022-10-11T15:41:02.995Z,39.50
2022-10-11T15:43:30.912Z,39.70
2022-10-11T15:45:58.933Z,39.80
2022-10-11T15:48:27.723Z,39.90
2022-10-11T15:50:56.171Z,39.90
2022-10-11T15:53:24.806Z,40.00
2022-10-11T15:55:55.061Z,40.10
2022-10-11T15:58:24.091Z,40.10
2022-10-11T16:00:54.093Z,40.30
2022-10-11T16:03:22.927Z,40.50
2022-10-11T16:05:51.465Z,40.60
2022-10-11T16:08:19.278Z,40.70
2022-10-11T16:10:47.514Z,40.70
2022-10-11T16:13:16.904Z,40.90
2022-10-11T16:15:48.525Z,41.10
2022-10-11T16:18:17.966Z,41.30
2022-10-11T16:20:46.616Z,41.40
2022-10-11T16:23:14.932Z,41.60
2022-10-11T16:25:42.827Z,41.90
2022-10-11T16:28:11.202Z,42.10
2022-10-11T16:30:43.061Z,42.40
2022-10-11T16:33:13.866Z,42.70
2022-10-11T16:35:42.498Z,42.90
2022-10-11T16:38:10.586Z,43.20
2022-10-11T16:40:38.513Z,43.50
2022-10-11T16:43:07.870Z,43.90
2022-10-11T16:45:36.598Z,44.10
2022-10-11T16:48:06.396Z,44.40
2022-10-11T16:50:39.059Z,44.60
2022-10-11T16:53:07.871Z,44.80
2022-10-11T16:55:35.758Z,45.10
2022-10-11T16:58:03.724Z,45.20
2022-10-11T17:00:31.719Z,45.50
2022-10-11T17:02:59.853Z,45.70
2022-10-11T17:05:29.147Z,45.90
2022-10-11T17:07:56.995Z,46.10
2022-10-11T17:10:39.294Z,46.30
2022-10-11T17:13:07.581Z,46.70
2022-10-11T17:15:38.700Z,46.90
2022-10-11T17:18:06.991Z,46.90
2022-10-11T17:20:36.176Z,46.90
2022-10-11T17:23:04.019Z,47.00
2022-10-11T17:25:31.952Z,47.10
2022-10-11T17:27:59.795Z,47.20
2022-10-11T17:30:27.733Z,47.50
2022-10-11T17:32:55.948Z,48.40
2022-10-11T17:35:26.258Z,47.70
2022-10-11T17:37:55.438Z,47.80
2022-10-11T17:40:26.233Z,48.00
2022-10-11T17:42:54.070Z,48.20
2022-10-11T17:45:21.945Z,48.20
2022-10-11T17:47:49.721Z,48.30
2022-10-11T17:50:17.821Z,48.50
2022-10-11T17:52:45.829Z,48.70
2022-10-11T17:55:15.107Z,48.80
2022-10-11T17:57:42.935Z,48.90
2022-10-11T18:00:11.480Z,49.20
2022-10-11T18:02:40.238Z,49.40
2022-10-11T18:05:08.744Z,49.70
2022-10-11T18:07:36.597Z,49.90
2022-10-11T18:10:04.545Z,50.00
2022-10-11T18:12:34.105Z,50.20
2022-10-11T18:15:02.096Z,50.10
2022-10-11T18:17:30.024Z,50.20
2022-10-11T18:19:57.907Z,50.30
2022-10-11T18:22:27.329Z,50.30
2022-10-11T18:24:55.107Z,50.40
2022-10-11T18:27:22.961Z,50.50
2022-10-11T18:29:52.153Z,50.50
2022-10-11T18:32:20.950Z,50.50
2022-10-11T18:34:48.797Z,50.80
2022-10-11T18:37:16.551Z,51.00
2022-10-11T18:39:54.464Z,51.30
2022-10-11T18:42:22.425Z,51.30
2022-10-11T18:44:50.209Z,51.30
2022-10-11T18:47:19.518Z,51.30
2022-10-11T18:49:47.377Z,51.50
2022-10-11T18:52:15.270Z,51.60
2022-10-11T18:54:43.724Z,51.50
2022-10-11T18:57:12.081Z,51.40
2022-10-11T18:59:39.860Z,51.90
2022-10-11T19:02:07.737Z,52.10
2022-10-11T19:04:37.939Z,52.00
2022-10-11T19:07:06.821Z,52.00
2022-10-11T19:09:34.871Z,52.00
2022-10-11T19:12:07.164Z,51.90
2022-10-11T19:14:35.047Z,52.00
2022-10-11T19:17:02.832Z,52.20
2022-10-11T19:19:30.850Z,52.20
2022-10-11T19:22:00.685Z,52.10
2022-10-11T19:24:29.480Z,52.10
2022-10-11T19:27:02.335Z,52.10
2022-10-11T19:29:31.395Z,52.20
2022-10-11T19:31:59.951Z,52.20
2022-10-11T19:34:36.832Z,52.30
2022-10-11T19:37:06.362Z,52.40
2022-10-11T19:39:34.288Z,52.40
2022-10-11T19:42:02.604Z,52.60
2022-10-11T19:44:32.462Z,52.70
2022-10-11T19:47:05.407Z,52.70
2022-10-11T19:49:33.346Z,52.50
2022-10-11T19:52:01.781Z,52.60
2022-10-11T19:54:31.957Z,52.60
2022-10-11T19:56:59.806Z,52.60
2022-10-11T19:59:28.087Z,52.60
2022-10-11T20:01:55.937Z,52.80
2022-10-11T20:07:11.929Z,53.10
2022-10-11T20:09:41.048Z,53.20
2022-10-11T20:12:09.172Z,53.40
2022-10-11T20:14:36.970Z,53.50
2022-10-11T20:17:04.754Z,53.50
2022-10-11T20:19:33.060Z,53.50
2022-10-11T20:22:01.027Z,53.50
2022-10-11T20:24:32.607Z,53.50
2022-10-11T20:27:02.723Z,53.50
2022-10-11T20:29:30.481Z,53.60
2022-10-11T20:31:58.929Z,53.70
2022-10-11T20:34:27.584Z,53.70
2022-10-11T20:36:55.395Z,53.80
2022-10-11T20:39:36.521Z,53.70
2022-10-11T20:42:06.155Z,53.80
2022-10-11T20:44:34.001Z,53.80
2022-10-11T20:47:04.183Z,53.90
2022-10-11T20:49:32.241Z,54.00
2022-10-11T20:52:00.160Z,54.10
2022-10-11T20:54:29.771Z,54.30
2022-10-11T20:56:58.020Z,54.40
2022-10-11T20:59:30.279Z,55.20
2022-10-11T21:01:58.477Z,54.70
2022-10-11T21:04:26.325Z,54.90
2022-10-11T21:06:54.120Z,55.00
2022-10-11T21:09:22.068Z,55.10
2022-10-11T21:11:49.809Z,55.00
2022-10-11T21:14:22.142Z,55.20
2022-10-11T21:16:51.423Z,55.30
2022-10-11T21:19:19.268Z,55.30
2022-10-11T21:21:52.531Z,55.20
2022-10-11T21:24:21.476Z,55.10
2022-10-11T21:26:49.250Z,55.30
2022-10-11T21:29:17.363Z,55.40
2022-10-11T21:31:45.235Z,55.30
2022-10-11T21:34:16.987Z,55.40
2022-10-11T21:36:44.872Z,55.60
2022-10-11T21:39:12.663Z,55.80
2022-10-11T21:41:42.098Z,55.90
2022-10-11T21:44:09.982Z,55.80
2022-10-11T21:47:04.988Z,55.70
2022-10-11T21:49:27.060Z,55.50
2022-10-11T21:51:55.054Z,55.50
2022-10-11T21:54:23.204Z,55.50
2022-10-11T21:56:51.086Z,55.50
2022-10-11T21:59:20.870Z,55.30
2022-10-11T22:01:48.709Z,55.30
2022-10-11T22:04:17.618Z,55.50
2022-10-11T22:06:46.849Z,55.60
2022-10-11T22:09:14.835Z,55.60
2022-10-11T22:11:42.574Z,55.50
2022-10-11T22:14:10.492Z,55.30
2022-10-11T22:16:38.343Z,55.40
2022-10-11T22:19:06.145Z,55.40
2022-10-11T22:21:38.291Z,55.40
2022-10-11T22:24:10.760Z,55.30
2022-10-11T22:26:38.566Z,55.40
2022-10-11T22:29:06.384Z,55.40
2022-10-11T22:31:35.691Z,55.50
2022-10-11T22:34:03.673Z,55.50
2022-10-11T22:36:31.667Z,55.30
2022-10-11T22:38:59.618Z,55.30
2022-10-11T22:41:31.954Z,55.20
2022-10-11T22:43:59.780Z,55.30
2022-10-11T22:46:27.833Z,55.20
2022-10-11T22:48:55.623Z,55.30
2022-10-11T22:51:25.890Z,55.40
2022-10-11T22:53:53.732Z,55.40
2022-10-11T22:56:21.538Z,56.00
2022-10-11T22:58:50.802Z,55.40
2022-10-11T23:01:20.763Z,55.40
2022-10-11T23:03:49.608Z,55.40
2022-10-11T23:06:17.893Z,55.40
2022-10-11T23:08:45.839Z,55.50
2022-10-11T23:11:13.716Z,55.60
2022-10-11T23:13:41.653Z,55.80
2022-10-11T23:16:11.974Z,56.00
2022-10-11T23:18:40.051Z,56.30
2022-10-11T23:21:08.252Z,56.30
2022-10-11T23:23:36.612Z,56.30
2022-10-11T23:26:05.532Z,56.10
2022-10-11T23:28:33.559Z,56.20
2022-10-11T23:31:01.618Z,56.30
2022-10-11T23:33:30.886Z,56.40
2022-10-11T23:36:01.614Z,56.20
2022-10-11T23:38:29.622Z,56.30
2022-10-11T23:40:57.446Z,56.20
2022-10-11T23:43:25.438Z,56.20
2022-10-11T23:45:55.443Z,56.30
2022-10-11T23:48:23.243Z,56.20
2022-10-11T23:50:52.389Z,56.30
2022-10-11T23:53:20.433Z,56.50
2022-10-11T23:55:48.283Z,56.40
2022-10-11T23:58:16.069Z,56.40
